Time;durP1;ratioP1;P1;durP2;ratioP2;P2;SDS_P1;SDS_P2;PMS_P1;PMS_P2;Temp;Humidity;BMP_temperature;BMP_pressure;BME280_temperature;BME280_humidity;BME280_pressure;Samples;Min_cycle;Max_cycle;Signal;HPM_P1;HPM_P2
2023/01/08 16:17:04;;;;;;;3.70;0.88;;;;;;;3.24;100.00;97857.75;6145348;22;1573209;-96
2023/01/08 16:19:33;;;;;;;1.23;0.60;;;;;;;3.06;100.00;97849.66;6237900;23;20008;-96
2023/01/08 16:21:59;;;;;;;4.15;0.80;;;;;;;3.07;100.00;97856.38;6227856;23;20008;-96
2023/01/08 16:24:25;;;;;;;7.40;0.80;;;;;;;2.99;100.00;97855.16;6225233;23;20064;-96
2023/01/08 16:26:53;;;;;;;2.72;0.70;;;;;;;3.06;100.00;97849.66;6227559;23;20631;-96
2023/01/08 16:29:19;;;;;;;5.97;0.73;;;;;;;2.85;100.00;97842.53;6230087;23;20320;-96
2023/01/08 16:31:46;;;;;;;8.57;0.90;;;;;;;2.81;100.00;97838.59;6230503;23;20004;-96
2023/01/08 16:34:14;;;;;;;5.07;0.90;;;;;;;2.84;100.00;97851.09;6228318;23;20008;-95
2023/01/08 16:36:40;;;;;;;7.00;1.00;;;;;;;2.89;100.00;97866.09;6228286;23;20370;-95
2023/01/08 16:39:06;;;;;;;2.60;0.90;;;;;;;2.77;100.00;97829.50;6227069;23;20013;-96
2023/01/08 16:41:38;;;;;;;5.97;1.02;;;;;;;2.74;100.00;97845.00;6228888;23;20095;-96
2023/01/08 16:44:05;;;;;;;4.50;0.95;;;;;;;2.77;100.00;97857.53;6227924;23;20058;-96
2023/01/08 16:46:33;;;;;;;11.35;1.42;;;;;;;2.81;100.00;97870.91;6230990;23;20447;-96
2023/01/08 16:48:59;;;;;;;6.15;1.20;;;;;;;2.76;100.00;97848.28;6229465;23;20001;-96
2023/01/08 16:51:26;;;;;;;4.70;1.27;;;;;;;2.63;100.00;97842.34;6211070;23;20440;-96
2023/01/08 16:53:52;;;;;;;8.82;1.52;;;;;;;2.62;100.00;97848.38;6198526;23;20005;-96
2023/01/08 16:56:18;;;;;;;9.95;1.10;;;;;;;2.67;100.00;97838.69;6195122;23;20005;-96
2023/01/08 16:58:43;;;;;;;5.97;1.05;;;;;;;2.57;100.00;97824.03;6195163;23;20009;-95
2023/01/08 17:01:11;;;;;;;4.18;1.35;;;;;;;2.61;100.00;97819.56;6195699;23;20043;-94
2023/01/08 17:03:36;;;;;;;7.88;1.15;;;;;;;2.89;100.00;97843.16;6196060;23;20084;-95
2023/01/08 17:06:07;;;;;;;8.55;2.20;;;;;;;2.75;100.00;97827.06;6197243;23;20012;-96
2023/01/08 17:08:38;;;;;;;7.07;1.48;;;;;;;2.69;100.00;97811.41;6201546;23;20380;-96
2023/01/08 17:11:09;;;;;;;8.88;2.83;;;;;;;2.72;100.00;97816.28;6199261;23;20009;-94
2023/01/08 17:13:35;;;;;;;7.10;1.60;;;;;;;2.74;100.00;97815.25;6191941;23;20001;-94
2023/01/08 17:16:06;;;;;;;8.05;1.48;;;;;;;2.62;100.00;97820.38;6191839;23;20008;-95
2023/01/08 17:18:31;;;;;;;8.23;1.70;;;;;;;2.55;100.00;97813.13;6192400;23;20008;-94
2023/01/08 17:20:57;;;;;;;7.63;1.40;;;;;;;2.65;100.00;97830.34;6192264;23;20017;-96
2023/01/08 17:36:59;;;;;;;5.93;2.08;;;;;;;2.22;100.00;97797.53;6177584;23;20052;-96
2023/01/08 17:39:25;;;;;;;10.63;2.00;;;;;;;2.13;100.00;97798.97;6175811;23;20011;-96
2023/01/08 17:44:37;;;;;;;5.88;2.45;;;;;;;1.96;100.00;97827.22;6077907;23;20013;-96
2023/01/08 17:47:06;;;;;;;4.72;2.38;;;;;;;2.10;100.00;97835.59;6174603;23;20014;-95
2023/01/08 17:49:32;;;;;;;16.15;4.78;;;;;;;2.09;100.00;97823.78;6172224;23;20033;-96
2023/01/08 17:52:31;;;;;;;8.27;3.22;;;;;;;2.31;100.00;97837.66;6169415;23;20011;-96
2023/01/08 18:23:39;;;;;;;15.98;2.92;;;;;;;2.22;100.00;97778.00;6163209;23;20017;-95
2023/01/08 18:26:07;;;;;;;9.00;3.38;;;;;;;2.16;100.00;97763.13;6137314;23;20092;-95
2023/01/08 18:28:35;;;;;;;12.80;3.45;;;;;;;2.26;100.00;97760.78;6136974;23;20065;-96
2023/01/08 18:31:08;;;;;;;13.15;2.72;;;;;;;2.22;100.00;97772.09;6135687;23;20013;-96
2023/01/08 18:33:35;;;;;;;11.23;2.67;;;;;;;2.17;100.00;97774.13;6136733;23;20101;-96
2023/01/08 18:39:21;;;;;;;23.05;2.90;;;;;;;2.52;100.00;97764.97;6153251;23;20013;-95
2023/01/08 18:44:31;;;;;;;11.00;3.05;;;;;;;3.19;100.00;97810.50;6103157;23;20088;-96
2023/01/08 18:46:56;;;;;;;16.42;2.58;;;;;;;3.02;100.00;97771.78;6165887;23;20485;-93
2023/01/08 18:49:23;;;;;;;12.68;2.97;;;;;;;3.27;100.00;97783.63;6182224;23;20014;-95
2023/01/08 18:51:49;;;;;;;14.02;2.58;;;;;;;3.34;100.00;97783.13;6192014;23;20036;-94
2023/01/08 18:54:15;;;;;;;9.95;2.50;;;;;;;3.31;100.00;97751.91;6191785;23;20000;-94
2023/01/08 18:56:40;;;;;;;12.38;2.42;;;;;;;3.61;100.00;97784.63;6191763;23;20441;-94
2023/01/08 18:59:06;;;;;;;13.85;3.10;;;;;;;3.53;100.00;97762.19;6190761;23;20063;-94
2023/01/08 19:01:34;;;;;;;12.85;3.20;;;;;;;3.72;100.00;97779.56;6190320;23;20036;-96
2023/01/08 19:03:59;;;;;;;16.05;3.15;;;;;;;3.68;100.00;97769.69;6191914;23;20016;-96
2023/01/08 19:06:25;;;;;;;16.52;3.08;;;;;;;3.67;100.00;97763.78;6193669;23;20013;-96
2023/01/08 19:08:52;;;;;;;18.30;3.60;;;;;;;3.63;100.00;97747.06;6193263;23;20012;-96
2023/01/08 19:11:17;;;;;;;20.92;4.10;;;;;;;3.60;100.00;97727.69;6178908;23;20503;-95
2023/01/08 19:13:53;;;;;;;19.65;4.90;;;;;;;3.89;100.00;97749.47;6197299;23;20003;-95
2023/01/08 19:16:19;;;;;;;15.65;3.00;;;;;;;3.95;100.00;97746.44;6194872;23;20036;-96
2023/01/08 19:18:53;;;;;;;20.45;2.95;;;;;;;3.90;100.00;97723.00;6198368;23;20015;-95
2023/01/08 19:21:19;;;;;;;12.35;3.40;;;;;;;3.89;100.00;97723.94;6195804;23;20018;-96
2023/01/08 19:23:48;;;;;;;24.80;4.80;;;;;;;3.90;100.00;97717.91;6196163;23;20010;-96
2023/01/08 19:26:15;;;;;;;14.25;3.30;;;;;;;4.17;100.00;97750.78;6196716;23;20030;-95
2023/01/08 19:28:45;;;;;;;25.52;4.35;;;;;;;4.16;100.00;97741.50;6196998;23;20007;-95
2023/01/08 19:31:14;;;;;;;15.43;3.85;;;;;;;3.94;100.00;97709.09;6195480;23;20034;-95
2023/01/08 19:33:40;;;;;;;14.77;3.17;;;;;;;3.91;100.00;97722.09;6195691;23;20010;-95
2023/01/08 19:36:11;;;;;;;20.67;4.32;;;;;;;4.04;100.00;97730.47;6194860;23;20093;-94
2023/01/08 19:38:39;;;;;;;18.73;4.88;;;;;;;3.83;100.00;97708.16;6194940;23;20445;-95
2023/01/08 19:43:40;;;;;;;15.10;2.70;;;;;;;4.00;100.00;97739.25;6193969;23;20115;-94
2023/01/08 19:46:26;;;;;;;18.65;2.67;;;;;;;3.96;100.00;97702.16;6078174;23;20014;-94
2023/01/08 19:48:54;;;;;;;20.58;3.55;;;;;;;4.18;100.00;97709.81;6195066;23;20447;-95
2023/01/08 19:51:20;;;;;;;22.25;2.92;;;;;;;4.16;100.00;97677.69;6193944;23;20060;-94
2023/01/08 19:53:46;;;;;;;12.95;2.50;;;;;;;4.42;100.00;97696.16;6194641;23;20441;-95
2023/01/08 19:56:12;;;;;;;22.25;2.60;;;;;;;4.64;100.00;97703.78;6193303;23;20089;-94
2023/01/08 19:58:38;;;;;;;29.38;4.63;;;;;;;4.78;100.00;97714.66;6195361;23;20083;-95
2023/01/08 20:01:15;;;;;;;13.90;2.75;;;;;;;4.88;100.00;97697.72;6195883;23;20496;-96
2023/01/08 20:03:41;;;;;;;18.02;2.38;;;;;;;4.87;100.00;97678.19;6195630;23;20006;-95
2023/01/08 20:06:15;;;;;;;16.60;2.15;;;;;;;4.80;100.00;97657.41;6194999;23;20009;-96
2023/01/08 20:08:41;;;;;;;17.23;2.33;;;;;;;4.99;100.00;97690.00;6196591;23;20011;-95
2023/01/08 20:11:11;;;;;;;15.95;2.42;;;;;;;5.02;100.00;97676.97;6195379;23;20433;-96
2023/01/08 20:13:38;;;;;;;9.57;1.77;;;;;;;4.91;100.00;97669.34;6194336;23;20357;-94
2023/01/08 20:16:05;;;;;;;20.13;2.17;;;;;;;4.83;100.00;97671.69;6193812;23;20068;-94
2023/01/08 20:18:30;;;;;;;14.25;3.00;;;;;;;4.67;100.00;97670.31;6194607;23;20018;-94
2023/01/08 20:21:09;;;;;;;14.93;1.90;;;;;;;4.55;100.00;97657.69;6193874;23;20014;-92
2023/01/08 20:23:36;;;;;;;27.20;3.13;;;;;;;4.57;100.00;97650.72;6195335;23;20007;-93
2023/01/08 20:26:08;;;;;;;12.43;2.28;;;;;;;4.70;100.00;97659.84;6193958;23;20007;-95
2023/01/08 20:28:36;;;;;;;8.70;2.30;;;;;;;4.85;100.00;97664.69;6194456;23;20006;-95
2023/01/08 20:31:11;;;;;;;5.68;1.80;;;;;;;4.83;100.00;97666.56;6194731;23;20064;-96
2023/01/08 20:33:37;;;;;;;12.65;2.72;;;;;;;4.75;100.00;97654.38;6194459;23;20006;-95
2023/01/08 20:36:17;;;;;;;9.98;2.05;;;;;;;4.88;100.00;97656.81;6194060;23;20065;-96
2023/01/08 20:38:44;;;;;;;7.55;1.80;;;;;;;4.75;100.00;97643.38;6195363;23;20006;-96
2023/01/08 20:41:10;;;;;;;13.35;1.60;;;;;;;4.98;100.00;97665.38;6194944;23;20014;-95
2023/01/08 20:43:37;;;;;;;10.55;2.20;;;;;;;4.79;100.00;97631.97;6194443;23;20011;-96
2023/01/08 20:46:04;;;;;;;5.18;1.25;;;;;;;5.00;100.00;97660.13;6193985;23;20496;-95
2023/01/08 20:48:31;;;;;;;7.90;1.38;;;;;;;4.86;100.00;97640.78;6195868;23;20017;-95
2023/01/08 20:50:59;;;;;;;6.55;1.30;;;;;;;4.89;100.00;97643.91;6195857;23;20038;-95
2023/01/08 20:53:28;;;;;;;6.45;2.15;;;;;;;5.00;100.00;97663.53;6195868;23;20010;-96
2023/01/08 20:55:53;;;;;;;7.28;1.23;;;;;;;4.82;100.00;97632.53;6195867;23;20003;-94
2023/01/08 20:58:19;;;;;;;7.90;1.20;;;;;;;4.98;100.00;97647.50;6196937;23;20089;-95
2023/01/08 21:00:45;;;;;;;6.50;1.38;;;;;;;5.04;100.00;97659.75;6195698;23;20388;-95
2023/01/08 21:03:11;;;;;;;13.10;2.28;;;;;;;4.88;100.00;97628.72;6195702;23;20014;-96
2023/01/08 21:05:38;;;;;;;15.38;1.65;;;;;;;4.89;100.00;97626.00;6196217;23;20010;-96
2023/01/08 21:08:05;;;;;;;6.90;1.20;;;;;;;4.85;100.00;97626.38;6199249;23;20003;-96
2023/01/08 21:10:31;;;;;;;8.65;1.88;;;;;;;4.77;100.00;97615.97;6202125;23;19999;-96
2023/01/08 21:13:00;;;;;;;8.10;1.50;;;;;;;4.94;100.00;97648.66;6202564;23;20014;-96
2023/01/08 21:15:25;;;;;;;6.55;1.92;;;;;;;4.77;100.00;97631.28;6203902;23;20273;-96
2023/01/08 21:17:54;;;;;;;8.63;1.90;;;;;;;4.85;100.00;97634.03;6204918;23;20033;-96
2023/01/08 21:20:21;;;;;;;12.90;2.03;;;;;;;4.81;100.00;97635.22;6206921;23;20037;-96
2023/01/08 21:22:47;;;;;;;10.20;1.80;;;;;;;4.84;100.00;97637.53;6205062;23;20085;-96
2023/01/08 21:25:12;;;;;;;5.80;1.45;;;;;;;4.92;100.00;97640.28;6200063;23;20010;-96
2023/01/08 21:27:38;;;;;;;8.20;1.60;;;;;;;4.97;100.00;97652.72;6202785;23;20021;-96
2023/01/08 21:30:04;;;;;;;8.57;2.35;;;;;;;4.93;100.00;97640.19;6204391;23;20006;-95
2023/01/08 21:32:30;;;;;;;14.15;2.05;;;;;;;4.90;100.00;97648.09;6205565;23;20007;-96
2023/01/08 21:34:57;;;;;;;11.20;3.20;;;;;;;4.99;100.00;97643.19;6206877;23;20066;-96
2023/01/08 21:37:23;;;;;;;13.88;2.03;;;;;;;5.06;100.00;97652.78;6183130;23;20011;-95
2023/01/08 21:39:50;;;;;;;18.80;3.05;;;;;;;5.00;100.00;97648.19;6203209;23;20006;-95
2023/01/08 21:47:46;;;;;;;7.60;1.00;;;;;;;5.13;100.00;97684.59;6102878;23;20041;-96
2023/01/08 21:50:12;;;;;;;6.28;1.00;;;;;;;4.98;100.00;97652.59;6195275;23;20030;-96
2023/01/08 21:55:22;;;;;;;5.72;1.08;;;;;;;5.09;100.00;97678.09;6096802;23;20009;-95
2023/01/08 21:57:47;;;;;;;5.53;1.33;;;;;;;5.03;100.00;97658.16;6197495;23;20007;-96
2023/01/08 22:00:14;;;;;;;6.57;1.73;;;;;;;4.94;100.00;97648.66;6198097;23;20437;-95
2023/01/08 22:02:40;;;;;;;15.43;2.15;;;;;;;4.91;100.00;97654.00;6196977;23;20118;-95
2023/01/08 22:05:07;;;;;;;9.80;1.33;;;;;;;5.08;100.00;97680.81;6197333;23;20018;-95
2023/01/08 22:07:32;;;;;;;11.27;1.20;;;;;;;5.07;100.00;97682.56;6196335;23;20006;-95
2023/01/08 22:10:02;;;;;;;11.82;1.83;;;;;;;5.03;100.00;97691.38;6195552;23;20025;-96
2023/01/08 22:12:28;;;;;;;11.98;2.78;;;;;;;5.06;100.00;97696.25;6195694;23;20003;-95
2023/01/08 22:14:55;;;;;;;10.00;2.00;;;;;;;5.31;100.00;97717.31;6195176;23;20002;-96
2023/01/08 22:17:22;;;;;;;15.50;2.25;;;;;;;5.23;100.00;97707.69;6195508;23;20003;-95
2023/01/08 22:19:48;;;;;;;8.88;1.85;;;;;;;5.24;100.00;97731.53;6194901;23;20037;-94
2023/01/08 22:22:13;;;;;;;11.73;2.08;;;;;;;5.15;100.00;97728.75;6194842;23;20011;-95
2023/01/08 22:24:39;;;;;;;12.18;4.57;;;;;;;5.23;100.00;97745.25;6195433;23;20006;-93
2023/01/08 22:27:06;;;;;;;15.55;1.67;;;;;;;5.22;100.00;97743.63;6195641;23;20017;-96
2023/01/08 22:29:32;;;;;;;13.95;2.42;;;;;;;5.40;100.00;97754.16;6195539;23;20079;-96
2023/01/08 22:31:58;;;;;;;16.00;2.20;;;;;;;5.30;100.00;97761.75;6195764;23;20002;-94
2023/01/08 22:34:24;;;;;;;12.38;2.38;;;;;;;5.27;100.00;97759.44;6195286;23;20006;-96
2023/01/08 22:36:51;;;;;;;11.73;1.92;;;;;;;5.36;100.00;97782.53;6194737;23;20354;-95
2023/01/08 22:39:17;;;;;;;6.07;1.92;;;;;;;5.34;100.00;97786.13;6194450;23;20034;-95
2023/01/08 22:41:42;;;;;;;11.43;2.00;;;;;;;5.48;100.00;97813.19;6194671;23;20006;-94
2023/01/08 22:44:12;;;;;;;10.60;1.85;;;;;;;5.41;100.00;97799.25;6194823;23;20010;-95
2023/01/08 22:46:37;;;;;;;7.97;2.30;;;;;;;5.40;100.00;97818.09;6194833;23;20101;-95
2023/01/08 22:49:03;;;;;;;6.53;1.58;;;;;;;5.26;100.00;97829.41;6194683;23;19998;-94
2023/01/08 22:51:29;;;;;;;7.63;1.40;;;;;;;5.28;100.00;97845.44;6194639;23;20009;-95
2023/01/08 22:53:56;;;;;;;10.70;2.00;;;;;;;5.13;100.00;97827.78;6194932;23;20365;-94
2023/01/08 22:56:22;;;;;;;8.32;1.35;;;;;;;5.30;100.00;97874.28;6194038;23;20010;-94
2023/01/08 22:58:48;;;;;;;6.78;1.00;;;;;;;5.14;100.00;97865.22;6194133;23;20006;-95
2023/01/08 23:01:21;;;;;;;5.65;1.38;;;;;;;5.12;100.00;97881.59;6194202;23;20086;-94
2023/01/08 23:03:51;;;;;;;8.32;1.73;;;;;;;4.67;100.00;97867.03;6194188;23;20034;-94
2023/01/08 23:06:18;;;;;;;4.82;1.33;;;;;;;4.84;100.00;97916.09;6194598;23;20006;-95
2023/01/08 23:08:44;;;;;;;5.65;1.15;;;;;;;4.68;100.00;97899.34;6193751;23;20013;-94
2023/01/08 23:11:12;;;;;;;10.25;2.53;;;;;;;4.76;100.00;97915.84;6194087;23;20003;-94
2023/01/08 23:13:39;;;;;;;4.30;1.48;;;;;;;4.59;100.00;97920.47;6193521;23;20449;-94
2023/01/08 23:16:06;;;;;;;5.72;1.00;;;;;;;4.53;100.00;97922.63;6194025;23;20007;-94
2023/01/08 23:18:32;;;;;;;3.45;1.02;;;;;;;4.37;100.00;97938.28;6194057;23;20102;-94
2023/01/08 23:21:11;;;;;;;6.50;1.40;;;;;;;4.19;100.00;97933.53;6193572;23;20038;-93
2023/01/08 23:23:37;;;;;;;4.80;1.23;;;;;;;4.10;100.00;97941.88;6194079;23;20006;-94
2023/01/08 23:26:13;;;;;;;6.13;1.00;;;;;;;4.11;100.00;97981.78;6194288;23;20082;-94
2023/01/08 23:28:39;;;;;;;3.40;0.90;;;;;;;4.05;100.00;97984.78;6193909;23;20393;-95
2023/01/08 23:31:13;;;;;;;3.65;0.70;;;;;;;3.95;100.00;97993.97;6194444;23;20037;-96
2023/01/08 23:33:39;;;;;;;2.58;1.00;;;;;;;3.65;100.00;97987.53;6193998;23;20010;-94
2023/01/08 23:36:05;;;;;;;5.00;0.88;;;;;;;3.54;100.00;97977.25;6194287;23;20017;-95
2023/01/08 23:38:31;;;;;;;3.35;1.17;;;;;;;3.60;100.00;98007.44;6193899;23;20002;-96
2023/01/08 23:40:57;;;;;;;1.95;0.70;;;;;;;3.21;100.00;97984.50;6194313;23;20010;-96
2023/01/08 23:43:23;;;;;;;3.33;0.65;;;;;;;3.04;100.00;97986.53;6195308;23;20008;-95
2023/01/08 23:45:48;;;;;;;4.97;1.25;;;;;;;3.09;100.00;97998.06;6193774;23;20485;-95
2023/01/08 23:48:14;;;;;;;5.45;0.90;;;;;;;3.20;100.00;97989.72;6194251;23;20011;-95
2023/01/08 23:50:40;;;;;;;4.32;1.40;;;;;;;3.11;100.00;98010.72;6194037;23;20038;-95
2023/01/08 23:53:05;;;;;;;8.02;1.20;;;;;;;3.26;100.00;98014.78;6194298;23;20007;-95
2023/01/08 23:55:31;;;;;;;4.07;0.90;;;;;;;3.38;100.00;98031.81;6194700;23;20033;-94
2023/01/08 23:57:56;;;;;;;4.80;1.45;;;;;;;3.36;100.00;98032.84;6194263;23;20057;-94
